My Meet Scores
Kennedy Schmidt, Phenom Gymnastics - MyMeetScores.com
Top100 | Top Teams | Upcoming Meets | Completed Meets | Latest | Add Scores | Help| Support | Bookmark and Share

Kennedy Schmidt, Phenom Gymnastics
Personal Bests
LevelVault BarsBeamFloorAA
39.5509.250 9.3009.57537.350
49.0509.500 9.5509.55037.550
59.4259.100 9.7259.40037.075
79.0008.800 9.5259.32536.150
Meet Scores
Date Meet Team Session Level Division Vault Bars Beam Floor AA
2019-03-29 Illinois Level 7 & 8 State Meet Phenom Gymnastics 7 7 Jr E 9.000 14T 8.225 22 9.150 14T 8.825 25 35.200 21
2019-03-01 NGCD Academy's 2019 Flip'r Invitational Phenom Gymnastics 6 7 Jr B 8.700 11 7.675 11 8.900 9 9.225 7 34.500 11
2019-02-23 Kinetic Classic 2019 Phenom Gymnastics 1 7 Middle 8.850 8 8.750 9T 9.500 1 9.000 11T 36.100 6
2019-02-01 The Big Chill Phenom Gymnastics 5 7 12 & 13 yr 8.550 12 8.800 4 8.875 5 9.175 4T 35.400 4
2019-01-18 2019 Bravo Classic Phenom Gymnastics 10A 7 Jr 8.550 15 8.750 10 9.525 2 9.325 9T 36.150 5
2018-12-14 2018 Aspire Classic Phenom Gymnastics 11B 7 Middle 8.650 11T 7.800 16 9.400 2 9.225 10T 35.075 10
2018-12-07 2018 MEGA Magic Classic Phenom Gymnastics A6 7 Jr B 8.775 4T 8.300 16 9.300 5T 9.225 12T 35.600 8
2018-03-08 Level 4 & 5 State Phenom Gymnastics 11 5 Jr B 9.425 6T 9.100 6 9.150 11T 9.225 6 36.900 6
2018-03-02 2018 Flip'r Invitational Phenom Gymnastics 3 5 Senior 8.800 13 8.050 14 9.200 5 8.875 8 34.925 10
2018-01-19 2018 Bravo Classic Phenom Gymnastics 3B 5 Jr 9.100 15T 9.075 13 9.225 8 9.150 9T 36.550 7
2017-12-15 2017 Aspire Classic Phenom Gymnastics 5A 5 Younger 9.025 3 9.025 8 9.500 3 9.400 2 36.950 2T
2017-12-08 MEGA Magic Classic 2017 Phenom Gymnastics 3A 5 Jr B 9.025 6 8.700 4 9.300 8 9.100 5 36.125 4T
2017-11-16 Paul Hamm Thanksgiving Classic - Women Phenom Gymnastics 8 5 Older 9.225 8T 8.900 15T 9.725 1 9.225 5 37.075 6
2017-03-10 2017 Illinois Level 4 State Championships Phenom Gymnastics 4 4 Youth D 9.050 8T 9.500 3 9.550 3T 9.450 3 37.550 1
2017-02-24 Kinetic Classic Phenom Gymnastics 5,6 4 All Ages 8.825 56 9.225 32T 9.275 31T 9.350 15T 36.675 21
2017-02-02 The Big Chill Phenom Gymnastics 2 4 10 Year Ol 8.475 9T 8.900 9 9.350 4T 9.175 6 35.900 6
2017-01-20 2017 Bravo Classic Phenom Gymnastics 06B 4 9yrs 8.350 10 9.300 4 9.250 5T 9.550 2 36.450 4
2016-12-16 2016 Aspire Classic Phenom Gymnastics 7 4 Middle 8.850 8 9.100 9T 9.025 19 9.375 6 36.350 8
2016-12-02 Ultimate Wish Classic Phenom Gymnastics 5 4 Jr B 8.800 7 9.300 3 9.550 2 9.400 5 37.050 3
2016-03-10 2016 Illinois Level 4 State Meet Phenom Gymnastics All 4 Child-E 8.725 9 8.350 19 9.150 8 9.250 3 35.475 8
2016-02-20 Big Classic Phenom Gymnastics 2B 4 Child A 8.725 10T 8.400 17T 8.825 12T 9.250 3 35.200 14
2016-01-15 2016 Bravo Classic Phenom Gymnastics 14A 4 6-8yrs 8.200 7T 8.475 5 9.250 1 9.200 1T 35.125 5
2015-12-11 St. Nick Invite Phenom Gymnastics 5A 4 Child 8.300 11T 8.300 9 9.100 7T 8.400 14 34.100 10
2015-03-12 2015 Illinois Level 3 State Championship Phenom Gymnastics All 3 Child-F 9.325 9 9.250 7 9.200 4 9.575 2 37.350 2
2015-03-05 Spring Hill Elgin Invitational Phenom Gymnastics 3B 3 CHILD 9.550 12T 9.000 21T 9.300 2 9.275 16T 37.125 5
2014-12-12 2014 MEGA Magic Classic Phenom Gymnastics 1 3 Child A 8.925 11T 9.050 2 8.975 2 9.475 1 36.425 1T
Get your scores on
a t-shirt, pin, or hoodie

www.lazysuits.com